Terminal Aerodrome Forecast
Issued by NWS

Home | Current Version | Previous Version | Text Only | Print | Product List | Glossary On
Versions: 1 2 3 4 5 6 7 8 9 10 11 12 13 14 15 16 17
692
FTUS43 KSGF 302320
TAFJLN
TAF
KJLN 302320Z 3100/3124 VRB05KT P6SM -RA VCSH BKN100
     FM310400 12004KT P6SM BKN130
     FM311200 15004KT P6SM BKN035 PROB30 3114/3117 4SM -TSRA
      OVC025CB
     FM311700 20005KT P6SM VCTS BKN040CB
     FM312300 21005KT P6SM -SHRA VCTS BKN080CB=

USA.gov is the U.S. government's official web portal to all federal, state and local government web resources and services.